Thursday, January 17, 2019, 6:53 AM EST
Back to Local

KBHB, Bar Harbor, Hancock County-bar Harbor Airport

Location: Ellsworth, ME, United States Lat: 44.45
Local Time: 6:53 AM EST (11:53 GMT) Lon: -68.367
Time Zone: US/Eastern Elev: 82 ft

Show me the last for .
Show Decoded

2019-01-17 05:56 METAR KBHB 171056Z AUTO 34005KT 10SM CLR M14/M21 A3026 RMK AO2 SLP252 T11441206
                 FZRANO $ =
2019-01-17 04:56 METAR KBHB 170956Z AUTO 32010G16KT 10SM CLR M14/M21 A3024 RMK AO2 SLP243
                 T11391206 FZRANO $ =
2019-01-17 03:56 METAR KBHB 170856Z AUTO 32009G17KT 10SM CLR M13/M21 A3022 RMK AO2 SLP236
                 T11331211 51042 FZRANO $ =
2019-01-17 02:56 METAR KBHB 170756Z AUTO VRB05KT 10SM CLR M12/M19 A3019 RMK AO2 SLP226 T11171189
                 FZRANO $ =
2019-01-17 01:56 METAR KBHB 170656Z AUTO 33010G16KT 310V010 10SM CLR M11/M18 A3014 RMK AO2 PK WND
                 33027/0558 SLP211 T11061183 FZRANO $ =
2019-01-17 00:56 METAR KBHB 170556Z AUTO 32009G16KT 10SM CLR M09/M17 A3009 RMK AO2 SLP194 60000
                 T10891167 10006 21089 51050 FZRANO $ =
2019-01-16 23:56 METAR KBHB 170456Z AUTO 33008G20KT 10SM CLR M06/M14 A3005 RMK AO2 SLP180
                 T10611144 FZRANO $ =
2019-01-16 22:56 METAR KBHB 170356Z AUTO 32010G20KT 10SM CLR M03/M10 A3000 RMK AO2 PRESRR SLP163
                 T10281100 FZRANO $ =
2019-01-16 21:56 METAR KBHB 170256Z AUTO 28010G16KT 10SM CLR M01/M08 A2994 RMK AO2 SLP144 60000
                 T10111083 53030 FZRANO $ =
2019-01-16 20:56 METAR KBHB 170156Z AUTO 29007KT 260V320 10SM FEW075 M01/M05 A2991 RMK AO2
                 RAB06E09UPB23E26SNB09E23 SLP131 P0000 T10061050 FZRANO $ =
2019-01-16 19:56 METAR KBHB 170056Z AUTO VRB04KT 10SM BKN050 BKN060 OVC080 01/M04 A2987 RMK AO2
                 SLP121 T00061044 FZRANO $ =
2019-01-16 18:56 METAR KBHB 162356Z AUTO 22006KT 10SM BKN075 00/M04 A2985 RMK AO2 SLP113 60000
                 T00001044 10017 21006 400171083 53014 FZRANO $ =
2019-01-16 17:56 METAR KBHB 162256Z AUTO 22008KT 10SM CLR M01/M04 A2984 RMK AO2 SLP107 T10061044
                 FZRANO $ =
2019-01-16 16:56 METAR KBHB 162156Z AUTO 21004KT 10SM CLR M01/M06 A2982 RMK AO2 SLP101 T10061056
                 FZRANO $ =
2019-01-16 15:56 METAR KBHB 162056Z AUTO 25005KT 10SM BKN041 01/M06 A2981 RMK AO2 SLP099 60000
                 T00111056 53006 FZRANO $ =
2019-01-16 14:56 METAR KBHB 161956Z AUTO 24009KT 10SM BKN031 OVC043 02/M04 A2979 RMK AO2 UPE10
                 SLP092 P0000 T00171044 FZRANO $ =
2019-01-16 14:33 METAR KBHB 161933Z AUTO 23008KT 10SM FEW027 OVC043 02/M04 A2979 RMK AO2 UPE10
                 P0000 FZRANO $ =
2019-01-16 13:56 METAR KBHB 161856Z AUTO 22012G22KT 7SM UP OVC023 02/M03 A2978 RMK AO2
                 RAB28E56UPB56 SLP090 P0000 T00171028 FZRANO $ =
2019-01-16 12:56 METAR KBHB 161756Z AUTO 21016G22KT 10SM OVC025 02/M03 A2980 RMK AO2 SLP094 60000
                 T00171028 10017 21006 58038 FZRANO $ =
2019-01-16 11:56 METAR KBHB 161656Z AUTO 21010G18KT 10SM OVC025 01/M03 A2984 RMK AO2 SLP107
                 T00111033 FZRANO $ =
2019-01-16 11:36 METAR KBHB 161636Z AUTO 21014G22KT 10SM BKN025 BKN030 OVC039 02/M03 A2984 RMK
                 AO2 FZRANO $ =
2019-01-16 11:10 METAR KBHB 161610Z AUTO 20016G20KT 10SM FEW023 OVC039 02/M03 A2986 RMK AO2
                 FZRANO $ =
2019-01-16 10:56 METAR KBHB 161556Z AUTO 20012KT 10SM BKN029 OVC037 01/M03 A2987 RMK AO2
                 RAB21E30UPB30E32 SLP118 P0000 T00111033 FZRANO $ =
2019-01-16 09:56 METAR KBHB 161456Z AUTO 21014G19KT 10SM OVC027 01/M03 A2991 RMK AO2 RAB32E43
                 SLP132 P0000 60000 T00111033 56017 FZRANO $ =
2019-01-16 08:56 METAR KBHB 161356Z AUTO 21010G17KT 10SM OVC027 01/M03 A2993 RMK AO2 UPE23 SLP138
                 P0000 T00061033 FZRANO $ =
2019-01-16 07:56 METAR KBHB 161256Z AUTO 17011KT 10SM UP OVC022 00/M03 A2993 RMK AO2 UPB16 SLP139
                 P0000 T00001028 FZRANO $ =
2019-01-16 06:56 METAR KBHB 161156Z AUTO 18009KT 10SM OVC024 M01/M03 A2996 RMK AO2 SLP148
                 T10061033 11006 21056 56014 FZRANO $ =

Support USWX by starting your Amazon purchase here.